createdAt,value
2023-04-19T00:02:16.944Z,13.03
2023-04-19T00:07:20.532Z,13.01
2023-04-19T00:12:23.584Z,12.98
2023-04-19T00:17:27.446Z,12.97
2023-04-19T00:22:30.635Z,12.94
2023-04-19T00:27:33.646Z,12.93
2023-04-19T00:32:36.792Z,12.96
2023-04-19T00:37:39.869Z,12.99
2023-04-19T00:42:42.834Z,12.99
2023-04-19T00:47:48.322Z,12.96
2023-04-19T00:52:53.770Z,12.91
2023-04-19T00:57:57.516Z,12.86
2023-04-19T01:03:01.270Z,12.81
2023-04-19T01:08:04.708Z,12.76
2023-04-19T01:13:07.697Z,12.75
2023-04-19T01:18:14.260Z,12.67
2023-04-19T01:23:19.078Z,12.64
2023-04-19T01:28:22.201Z,12.62
2023-04-19T01:33:26.410Z,12.54
2023-04-19T01:38:29.513Z,12.54
2023-04-19T01:43:32.561Z,12.53
2023-04-19T01:48:38.821Z,12.49
2023-04-19T01:53:41.818Z,12.53
2023-04-19T01:58:44.821Z,12.58
2023-04-19T02:03:48.129Z,12.56
2023-04-19T02:08:51.407Z,12.50
2023-04-19T02:13:54.507Z,12.47
2023-04-19T02:18:57.644Z,12.46
2023-04-19T02:24:01.394Z,12.41
2023-04-19T02:29:06.959Z,12.37
2023-04-19T02:34:10.428Z,12.37
2023-04-19T02:39:13.491Z,12.39
2023-04-19T02:44:16.968Z,12.36
2023-04-19T02:49:21.278Z,12.31
2023-04-19T02:54:24.315Z,12.30
2023-04-19T02:59:27.932Z,12.29
2023-04-19T03:04:32.074Z,12.22
2023-04-19T03:09:35.310Z,12.14
2023-04-19T03:14:39.940Z,12.09
2023-04-19T03:19:43.115Z,12.05
2023-04-19T03:24:47.069Z,12.05
2023-04-19T03:29:57.524Z,12.06
2023-04-19T03:35:01.554Z,12.01
2023-04-19T03:40:06.201Z,11.98
2023-04-19T03:45:10.430Z,11.93
2023-04-19T03:50:16.888Z,11.86
2023-04-19T03:55:22.190Z,11.81
2023-04-19T04:00:25.288Z,11.75
2023-04-19T04:05:31.764Z,11.71
2023-04-19T04:10:36.233Z,11.68
2023-04-19T04:15:39.495Z,11.68
2023-04-19T04:20:44.564Z,11.70
2023-04-19T04:25:47.913Z,11.69
2023-04-19T04:30:52.113Z,11.69
2023-04-19T04:35:56.680Z,11.70
2023-04-19T04:41:00.314Z,11.71
2023-04-19T04:46:04.313Z,11.71
2023-04-19T04:51:11.137Z,11.69
2023-04-19T04:56:15.163Z,11.73
2023-04-19T05:01:19.835Z,11.78
2023-04-19T05:06:23.866Z,11.86
2023-04-19T05:11:27.373Z,11.92
2023-04-19T05:16:31.454Z,11.95
2023-04-19T05:21:35.001Z,11.94
2023-04-19T05:26:39.269Z,11.95
2023-04-19T05:31:42.863Z,11.90
2023-04-19T05:36:52.821Z,11.87
2023-04-19T05:41:55.846Z,11.83
2023-04-19T05:46:58.874Z,11.78
2023-04-19T05:52:28.375Z,11.76
2023-04-19T05:57:33.956Z,11.82
2023-04-19T06:02:37.343Z,11.91
2023-04-19T06:07:44.021Z,12.02
2023-04-19T06:12:59.534Z,12.08
2023-04-19T06:18:02.587Z,12.11
2023-04-19T06:23:06.328Z,12.16
2023-04-19T06:28:09.384Z,12.23
2023-04-19T06:33:12.419Z,12.29
2023-04-19T06:38:15.354Z,12.27
2023-04-19T06:43:18.444Z,12.29
2023-04-19T06:48:21.499Z,12.27
2023-04-19T06:53:24.656Z,12.22
2023-04-19T06:58:28.734Z,12.18
2023-04-19T07:03:32.068Z,12.17
2023-04-19T07:08:48.663Z,12.21
2023-04-19T07:13:52.746Z,12.20
2023-04-19T07:18:56.017Z,12.21
2023-04-19T07:23:59.775Z,12.16
2023-04-19T07:29:03.354Z,12.06
2023-04-19T07:34:09.428Z,11.99
2023-04-19T07:39:13.366Z,11.91
2023-04-19T07:44:16.593Z,11.83
2023-04-19T07:49:34.045Z,11.77
2023-04-19T07:54:39.392Z,11.65
2023-04-19T07:59:42.496Z,11.59
2023-04-19T08:04:48.350Z,11.51
2023-04-19T08:09:51.865Z,11.49
2023-04-19T08:15:05.302Z,11.47
2023-04-19T08:20:21.825Z,11.50
2023-04-19T08:25:28.787Z,11.59
2023-04-19T08:30:36.110Z,11.63
2023-04-19T08:35:42.174Z,11.61
2023-04-19T08:40:52.758Z,11.57
2023-04-19T08:45:56.774Z,11.55
2023-04-19T08:51:05.587Z,11.53
2023-04-19T08:56:21.083Z,11.48
2023-04-19T09:01:36.052Z,11.50
2023-04-19T09:06:41.267Z,11.50
2023-04-19T09:11:44.882Z,11.54
2023-04-19T09:16:48.680Z,11.54
2023-04-19T09:21:52.015Z,11.52
2023-04-19T09:26:55.964Z,11.48
2023-04-19T10:27:46.981Z,11.21
2023-04-19T10:32:56.541Z,11.28
2023-04-19T10:38:08.891Z,11.37
2023-04-19T10:43:15.574Z,11.46
2023-04-19T10:48:38.144Z,11.49
2023-04-19T10:54:00.399Z,11.52
2023-04-19T10:59:11.620Z,11.53
2023-04-19T11:04:22.075Z,11.54
2023-04-19T11:09:34.959Z,11.56
2023-04-19T11:14:42.028Z,11.59
2023-04-19T11:19:59.004Z,11.65
2023-04-19T11:25:19.592Z,11.73
2023-04-19T11:30:31.087Z,11.89
2023-04-19T11:35:34.822Z,12.10
2023-04-19T11:40:38.123Z,12.23
2023-04-19T11:45:41.926Z,12.34
2023-04-19T11:50:47.912Z,12.44
2023-04-19T11:55:56.278Z,12.46
2023-04-19T12:01:06.762Z,12.43
2023-04-19T12:06:18.588Z,12.31
2023-04-19T12:11:26.614Z,12.19
2023-04-19T12:16:29.886Z,12.08
2023-04-19T12:25:30.691Z,11.92
2023-04-19T12:30:36.692Z,11.87
2023-04-19T12:35:41.174Z,11.89
2023-04-19T12:40:44.568Z,11.86
2023-04-19T12:45:47.590Z,11.98
2023-04-19T12:50:50.684Z,12.11
2023-04-19T12:55:53.711Z,12.25
2023-04-19T13:00:56.897Z,12.23
2023-04-19T13:05:59.909Z,12.23
2023-04-19T13:25:26.731Z,12.26
2023-04-19T13:30:30.691Z,12.30
2023-04-19T13:35:33.824Z,12.39
2023-04-19T13:40:36.810Z,12.48
2023-04-19T13:45:40.009Z,12.52
2023-04-19T13:50:43.315Z,12.61
2023-04-19T13:55:47.037Z,12.69
2023-04-19T14:00:51.290Z,12.77
2023-04-19T14:05:55.300Z,12.86
2023-04-19T14:10:59.175Z,12.84
2023-04-19T14:16:02.673Z,12.95
2023-04-19T14:21:05.934Z,13.09
2023-04-19T14:26:09.377Z,13.10
2023-04-19T14:31:21.906Z,13.11
2023-04-19T14:36:28.968Z,13.12
2023-04-19T14:41:39.622Z,13.21
2023-04-19T14:46:43.106Z,13.36
2023-04-19T14:51:46.297Z,13.33
2023-04-19T14:56:50.743Z,13.32
2023-04-19T15:01:54.089Z,13.40
2023-04-19T15:06:57.319Z,13.50
2023-04-19T15:12:01.894Z,13.56
2023-04-19T15:17:06.042Z,13.47
2023-04-19T15:22:09.592Z,13.32
2023-04-19T15:27:13.713Z,13.16
2023-04-19T15:32:16.893Z,13.02
2023-04-19T15:37:20.966Z,12.86
2023-04-19T15:42:24.372Z,12.72
2023-04-19T15:47:27.875Z,12.61
2023-04-19T15:52:32.428Z,12.53
2023-04-19T15:57:36.562Z,12.44
2023-04-19T16:02:41.306Z,12.36
2023-04-19T16:07:45.596Z,12.30
2023-04-19T16:12:51.373Z,12.33
2023-04-19T16:17:55.635Z,12.42
2023-04-19T16:23:03.151Z,12.46
2023-04-19T16:28:07.402Z,12.42
2023-04-19T16:33:12.180Z,12.36
2023-04-19T16:38:16.427Z,12.34
2023-04-19T16:43:21.516Z,12.26
2023-04-19T16:48:25.445Z,12.19
2023-04-19T16:53:31.422Z,12.09
2023-04-19T16:58:35.437Z,12.04
2023-04-19T17:03:39.383Z,11.98
2023-04-19T17:08:43.047Z,11.92
2023-04-19T17:13:46.900Z,11.88
2023-04-19T17:18:52.900Z,11.85
2023-04-19T17:23:57.006Z,11.82
2023-04-19T17:29:02.061Z,11.84
2023-04-19T17:34:06.460Z,11.92
2023-04-19T17:39:10.523Z,11.97
2023-04-19T17:44:14.725Z,11.88
2023-04-19T17:49:21.792Z,11.84
2023-04-19T17:54:25.409Z,11.78
2023-04-19T17:59:33.090Z,11.76
2023-04-19T18:04:38.744Z,11.88
2023-04-19T18:09:43.379Z,11.92
2023-04-19T18:14:47.347Z,11.82
2023-04-19T18:19:51.300Z,11.76
2023-04-19T18:24:55.172Z,11.68
2023-04-19T18:29:59.270Z,11.65
2023-04-19T18:35:09.665Z,11.64
2023-04-19T18:40:14.897Z,11.66
2023-04-19T18:45:19.122Z,11.69
2023-04-19T18:50:23.178Z,11.68
2023-04-19T18:55:26.999Z,11.67
2023-04-19T19:00:30.723Z,11.77
2023-04-19T19:05:33.918Z,11.74
2023-04-19T19:15:48.261Z,11.50
2023-04-19T19:20:52.995Z,11.45
2023-04-19T19:25:58.557Z,11.50
2023-04-19T19:31:02.688Z,11.43
2023-04-19T19:36:06.285Z,11.36
2023-04-19T19:41:51.502Z,11.33
2023-04-19T19:51:57.797Z,11.24
2023-04-19T20:02:10.417Z,11.19
2023-04-19T20:12:22.114Z,11.14
2023-04-19T20:17:25.696Z,11.09
2023-04-19T20:22:29.663Z,11.07
2023-04-19T20:27:34.126Z,11.03
2023-04-19T20:32:39.865Z,11.06
2023-04-19T20:37:45.011Z,11.11
2023-04-19T20:42:48.613Z,11.12
2023-04-19T20:48:00.014Z,11.12
2023-04-19T20:53:04.444Z,11.13
2023-04-19T20:58:08.502Z,11.13
2023-04-19T21:03:13.731Z,11.12
2023-04-19T21:08:19.277Z,11.09
2023-04-19T21:13:22.830Z,11.04
2023-04-19T21:18:30.096Z,11.05
2023-04-19T21:23:33.166Z,11.07
2023-04-19T21:28:38.203Z,11.10
2023-04-19T21:33:41.779Z,11.11
2023-04-19T21:38:45.317Z,11.09
2023-04-19T21:43:49.090Z,11.06
2023-04-19T21:48:55.673Z,11.05
2023-04-19T21:53:59.223Z,11.04
2023-04-19T21:59:02.450Z,10.97
2023-04-19T22:04:06.796Z,10.99
2023-04-19T22:09:14.620Z,11.00
2023-04-19T22:14:19.365Z,11.03
2023-04-19T22:19:27.338Z,11.00
2023-04-19T22:24:32.198Z,10.92
2023-04-19T22:29:36.617Z,10.84
2023-04-19T22:34:41.186Z,10.83
2023-04-19T22:39:44.645Z,10.80
2023-04-19T22:44:48.216Z,10.86
2023-04-19T22:49:52.569Z,10.89
2023-04-19T22:54:56.750Z,10.85
2023-04-19T23:00:02.698Z,10.78
2023-04-19T23:05:07.661Z,10.69
2023-04-19T23:10:13.397Z,10.60
2023-04-19T23:15:17.912Z,10.54
2023-04-19T23:20:22.040Z,10.46
2023-04-19T23:25:26.704Z,10.37
2023-04-19T23:30:32.740Z,10.31
2023-04-19T23:35:36.200Z,10.30
2023-04-19T23:40:40.951Z,10.28
2023-04-19T23:45:46.305Z,10.26
2023-04-19T23:50:49.912Z,10.21
2023-04-19T23:55:56.041Z,10.14
